Time;durP1;ratioP1;P1;durP2;ratioP2;P2;SDS_P1;SDS_P2;PMS_P1;PMS_P2;Temp;Humidity;BMP_temperature;BMP_pressure;BME280_temperature;BME280_humidity;BME280_pressure;Samples;Min_cycle;Max_cycle;Signal;HPM_P1;HPM_P2
2023/07/10 00:03:59;;;;;;;4.80;2.05;;;16.70;99.90;;;;;;10335073;28;20584;-95
2023/07/10 00:09:02;;;;;;;2.97;2.20;;;16.70;99.90;;;;;;10335134;28;20205;-95
2023/07/10 00:14:11;;;;;;;5.78;2.40;;;16.80;99.90;;;;;;10317341;28;20576;-94
2023/07/10 00:19:15;;;;;;;2.30;1.80;;;16.70;99.90;;;;;;10336876;28;20201;-95
2023/07/10 00:24:17;;;;;;;4.20;1.85;;;16.80;99.90;;;;;;10320774;28;20264;-94
2023/07/10 00:29:31;;;;;;;3.25;2.53;;;17.00;99.90;;;;;;10322699;28;20276;-95
2023/07/10 00:34:34;;;;;;;4.20;2.20;;;16.90;99.90;;;;;;10321633;28;20209;-94
2023/07/10 00:39:38;;;;;;;3.67;3.13;;;16.70;99.90;;;;;;10319857;28;20241;-95
2023/07/10 00:44:50;;;;;;;3.30;2.25;;;16.50;99.90;;;;;;10332088;28;20648;-94
2023/07/10 00:50:28;;;;;;;3.72;1.85;;;16.50;99.90;;;;;;10277735;28;20268;-94
2023/07/10 00:55:37;;;;;;;3.22;1.70;;;16.40;99.90;;;;;;10262209;28;20213;-95
2023/07/10 01:01:04;;;;;;;5.63;2.35;;;16.40;99.90;;;;;;10293612;28;20210;-94
2023/07/10 01:06:14;;;;;;;5.65;2.60;;;16.50;99.90;;;;;;10310669;28;20225;-93
2023/07/10 01:11:19;;;;;;;2.67;2.38;;;16.40;99.90;;;;;;10314661;28;20572;-95
2023/07/10 01:16:23;;;;;;;2.65;2.33;;;16.50;99.90;;;;;;10339996;28;20626;-94
2023/07/10 01:21:32;;;;;;;3.97;1.98;;;16.40;99.90;;;;;;10295812;28;20213;-95
2023/07/10 01:26:36;;;;;;;2.72;2.28;;;16.30;99.90;;;;;;10283619;28;20249;-94
2023/07/10 01:31:39;;;;;;;5.60;2.10;;;16.30;99.90;;;;;;10291598;28;20267;-94
2023/07/10 01:36:44;;;;;;;3.08;2.20;;;16.30;99.90;;;;;;10315473;28;20216;-94
2023/07/10 01:41:46;;;;;;;3.17;2.20;;;16.40;99.90;;;;;;10333636;28;20237;-94
2023/07/10 01:46:49;;;;;;;3.22;2.40;;;16.50;99.90;;;;;;10335524;28;20655;-95
2023/07/10 01:51:53;;;;;;;3.22;2.20;;;16.50;99.90;;;;;;10303515;28;20260;-95
2023/07/10 01:56:56;;;;;;;1.95;1.77;;;16.40;99.90;;;;;;10288532;28;20271;-95
2023/07/10 02:02:00;;;;;;;2.15;1.92;;;16.30;99.90;;;;;;10319292;28;20208;-94
2023/07/10 02:07:03;;;;;;;3.63;2.25;;;16.50;99.90;;;;;;10318238;28;20229;-94
2023/07/10 02:12:06;;;;;;;5.28;2.58;;;16.50;99.90;;;;;;10343958;28;20209;-95
2023/07/10 02:17:08;;;;;;;6.15;3.05;;;16.50;99.90;;;;;;10324483;28;20201;-95
2023/07/10 02:22:11;;;;;;;3.38;1.63;;;16.20;99.90;;;;;;10340757;28;20221;-94
2023/07/10 02:27:14;;;;;;;5.45;2.20;;;16.40;99.90;;;;;;10325285;28;20213;-95
2023/07/10 02:32:16;;;;;;;4.78;2.00;;;16.40;99.90;;;;;;10361689;28;20192;-94
2023/07/10 02:37:20;;;;;;;3.78;2.45;;;16.10;99.90;;;;;;10364299;28;20208;-95
2023/07/10 02:42:23;;;;;;;3.35;2.60;;;16.30;99.90;;;;;;10379425;28;20240;-94
2023/07/10 02:47:25;;;;;;;5.13;2.05;;;16.20;99.90;;;;;;10380215;28;20221;-94
2023/07/10 02:52:28;;;;;;;9.13;2.72;;;16.30;99.90;;;;;;10345194;28;20210;-94
2023/07/10 02:57:31;;;;;;;2.10;1.85;;;16.20;99.90;;;;;;10357207;28;20216;-95
2023/07/10 03:02:33;;;;;;;2.10;1.45;;;16.40;99.90;;;;;;10362178;28;20197;-94
2023/07/10 03:07:36;;;;;;;2.05;1.80;;;16.50;99.90;;;;;;10346040;28;20210;-95
2023/07/10 03:12:39;;;;;;;5.60;2.70;;;16.60;99.90;;;;;;10323888;28;20193;-94
2023/07/10 03:17:42;;;;;;;2.55;2.30;;;16.40;99.90;;;;;;10324343;28;20210;-95
2023/07/10 03:22:45;;;;;;;5.45;3.15;;;16.30;99.90;;;;;;10369538;28;20193;-95
2023/07/10 03:27:50;;;;;;;5.88;3.00;;;16.30;99.90;;;;;;10345846;28;20245;-95
2023/07/10 03:32:55;;;;;;;5.80;2.70;;;16.30;99.90;;;;;;10346270;28;20186;-95
2023/07/10 03:37:57;;;;;;;4.40;3.03;;;16.40;99.90;;;;;;10348711;28;20186;-96
2023/07/10 03:43:00;;;;;;;4.20;2.72;;;16.30;99.90;;;;;;10357958;28;20287;-96
2023/07/10 03:48:03;;;;;;;3.13;2.50;;;16.40;99.90;;;;;;10345931;28;20222;-96
2023/07/10 03:53:05;;;;;;;6.22;2.10;;;16.40;99.90;;;;;;10375807;28;20181;-96
2023/07/10 03:58:19;;;;;;;4.15;2.28;;;16.40;99.90;;;;;;10384915;28;20228;-96
2023/07/10 04:03:24;;;;;;;30.45;5.80;;;16.50;99.90;;;;;;10384543;28;20266;-96
2023/07/10 04:08:30;;;;;;;8.90;2.78;;;16.60;99.90;;;;;;10368175;28;20213;-96
2023/07/10 04:13:32;;;;;;;6.30;2.50;;;16.70;99.90;;;;;;10369478;28;20185;-96
2023/07/10 04:18:36;;;;;;;21.27;5.22;;;16.90;99.90;;;;;;10382191;28;20228;-96
2023/07/10 04:23:39;;;;;;;12.98;3.15;;;16.80;99.90;;;;;;10373256;28;20182;-96
2023/07/10 04:28:42;;;;;;;9.43;3.58;;;16.80;99.90;;;;;;10327852;28;20222;-96
2023/07/10 04:33:45;;;;;;;8.57;4.45;;;17.00;99.90;;;;;;10344802;28;20214;-96
2023/07/10 04:38:49;;;;;;;11.98;3.28;;;17.20;99.90;;;;;;10330424;28;20178;-92
2023/07/10 04:43:52;;;;;;;15.48;3.83;;;17.30;99.90;;;;;;10382049;28;20193;-94
2023/07/10 04:48:54;;;;;;;9.57;3.67;;;17.40;99.90;;;;;;10330326;28;20245;-95
2023/07/10 04:53:57;;;;;;;3.78;2.70;;;17.40;99.90;;;;;;10346303;28;20190;-95
2023/07/10 04:58:59;;;;;;;4.00;2.70;;;17.60;99.90;;;;;;10354382;28;20197;-96
2023/07/10 05:04:02;;;;;;;6.70;1.80;;;17.90;99.90;;;;;;10345671;28;20189;-94
2023/07/10 05:09:05;;;;;;;3.80;1.83;;;18.40;98.90;;;;;;10329428;28;20201;-94
2023/07/10 05:14:08;;;;;;;1.95;1.00;;;18.80;97.80;;;;;;10347252;28;20178;-94
2023/07/10 05:19:12;;;;;;;4.50;3.38;;;19.40;96.70;;;;;;10361999;28;20205;-96
2023/07/10 05:24:14;;;;;;;4.88;2.60;;;19.80;94.50;;;;;;10329596;28;20209;-94
2023/07/10 05:29:17;;;;;;;4.65;3.08;;;20.10;93.30;;;;;;10339863;28;20233;-93
2023/07/10 05:34:22;;;;;;;4.53;2.33;;;20.30;92.10;;;;;;10368707;28;20208;-93
2023/07/10 05:39:25;;;;;;;6.53;3.08;;;20.60;92.50;;;;;;10367845;28;20213;-95
2023/07/10 05:44:27;;;;;;;6.68;3.92;;;21.10;91.10;;;;;;10384131;28;20204;-94
2023/07/10 05:49:31;;;;;;;3.22;2.38;;;21.40;89.20;;;;;;10366780;28;20213;-96
2023/07/10 05:54:34;;;;;;;6.40;3.33;;;21.60;87.60;;;;;;10346318;28;20211;-95
2023/07/10 05:59:36;;;;;;;15.52;5.20;;;21.70;85.20;;;;;;10368421;28;20188;-96
2023/07/10 06:04:39;;;;;;;5.10;3.42;;;21.70;85.60;;;;;;10367912;28;20193;-96
2023/07/10 06:09:42;;;;;;;8.40;4.13;;;21.90;87.30;;;;;;10384389;28;20239;-96
2023/07/10 06:14:44;;;;;;;10.32;2.95;;;21.90;86.60;;;;;;10367382;28;20189;-96
2023/07/10 06:19:47;;;;;;;9.40;2.95;;;21.90;85.20;;;;;;10383474;28;20201;-96
2023/07/10 06:24:49;;;;;;;10.60;2.83;;;22.10;81.20;;;;;;10366194;28;20181;-96
2023/07/10 06:29:52;;;;;;;3.13;1.80;;;22.50;78.80;;;;;;10367576;28;20221;-96
2023/07/10 06:34:54;;;;;;;6.35;2.85;;;22.90;76.30;;;;;;10371443;28;20205;-96
2023/07/10 06:40:08;;;;;;;4.43;2.55;;;23.20;73.40;;;;;;10383790;28;20444;-96
2023/07/10 06:45:12;;;;;;;5.85;2.67;;;23.30;72.00;;;;;;10367322;28;20197;-96
2023/07/10 06:50:15;;;;;;;6.15;2.10;;;23.70;73.40;;;;;;10383726;28;20217;-96
2023/07/10 06:55:18;;;;;;;6.15;3.42;;;23.90;67.30;;;;;;10366422;28;20248;-96
2023/07/10 07:00:20;;;;;;;9.90;3.05;;;24.10;65.50;;;;;;10355360;28;20225;-96
2023/07/10 07:05:23;;;;;;;6.20;3.03;;;24.40;62.00;;;;;;10323326;28;20249;-96
2023/07/10 07:10:29;;;;;;;4.28;2.88;;;24.60;60.00;;;;;;10336929;28;20252;-96
2023/07/10 07:15:32;;;;;;;6.50;3.22;;;24.80;55.40;;;;;;10365856;28;20213;-96
2023/07/10 07:20:35;;;;;;;3.28;2.22;;;24.90;52.50;;;;;;10379744;28;20252;-96
2023/07/10 07:25:40;;;;;;;5.20;2.88;;;25.00;53.10;;;;;;10323289;28;20210;-96
2023/07/10 07:30:47;;;;;;;7.05;2.72;;;25.10;51.80;;;;;;10328314;28;20225;-96
2023/07/10 07:35:51;;;;;;;2.47;2.20;;;25.20;48.10;;;;;;10326699;28;20233;-96
2023/07/10 07:40:56;;;;;;;2.55;2.22;;;25.40;48.30;;;;;;10342382;28;20299;-96
2023/07/10 07:46:00;;;;;;;3.50;2.40;;;25.60;47.40;;;;;;10355550;28;20275;-96
2023/07/10 07:51:05;;;;;;;4.65;2.70;;;25.60;43.30;;;;;;10340321;28;20213;-96
2023/07/10 07:56:08;;;;;;;8.18;3.15;;;25.40;42.80;;;;;;10343124;28;20209;-96
2023/07/10 08:01:11;;;;;;;6.57;3.08;;;25.40;39.60;;;;;;10301055;28;20213;-96
2023/07/10 08:06:14;;;;;;;8.85;2.58;;;25.40;42.60;;;;;;10286902;28;20292;-96
2023/07/10 08:11:16;;;;;;;8.27;3.13;;;25.40;42.80;;;;;;10313287;28;20263;-96
2023/07/10 08:16:20;;;;;;;1.70;1.38;;;25.70;40.90;;;;;;10319980;28;20245;-96
2023/07/10 08:21:22;;;;;;;2.38;2.17;;;25.90;40.80;;;;;;10309466;28;20225;-96
2023/07/10 08:26:25;;;;;;;2.95;2.65;;;26.30;38.60;;;;;;10305162;28;20225;-96
2023/07/10 08:31:29;;;;;;;2.80;1.95;;;26.60;38.10;;;;;;10302518;28;20221;-96
2023/07/10 08:36:31;;;;;;;2.50;2.22;;;26.60;38.80;;;;;;10342143;28;20208;-96
2023/07/10 08:41:34;;;;;;;5.05;2.65;;;26.70;38.20;;;;;;10357945;28;20226;-96
2023/07/10 08:46:37;;;;;;;9.13;3.45;;;26.80;37.10;;;;;;10360694;28;20230;-96
2023/07/10 08:51:58;;;;;;;7.18;2.97;;;26.90;40.00;;;;;;10344374;28;20210;-96
2023/07/10 08:57:21;;;;;;;3.90;3.38;;;27.00;38.40;;;;;;10332987;28;20218;-96
2023/07/10 09:02:36;;;;;;;2.60;1.75;;;27.20;38.10;;;;;;10328885;28;20213;-96
2023/07/10 09:07:46;;;;;;;5.85;2.50;;;27.20;35.40;;;;;;10364327;28;20252;-96
2023/07/10 09:12:54;;;;;;;3.05;2.60;;;27.30;36.10;;;;;;10341901;28;20241;-96
2023/07/10 09:18:34;;;;;;;1.88;1.60;;;27.40;33.00;;;;;;10294987;28;20268;-96
2023/07/10 09:23:37;;;;;;;4.25;1.92;;;27.40;32.10;;;;;;10305547;28;20205;-96
2023/07/10 09:28:44;;;;;;;10.18;3.97;;;27.50;32.50;;;;;;10321577;28;20295;-96
2023/07/10 09:33:52;;;;;;;5.93;3.75;;;27.90;33.20;;;;;;10309348;28;20204;-96
2023/07/10 09:38:56;;;;;;;4.15;1.77;;;28.10;31.20;;;;;;10320990;28;20237;-96
2023/07/10 09:44:14;;;;;;;3.05;1.95;;;28.10;29.20;;;;;;10319156;28;20217;-96
2023/07/10 09:49:22;;;;;;;3.65;3.33;;;28.10;29.20;;;;;;10345739;28;20233;-96
2023/07/10 09:54:34;;;;;;;4.22;2.75;;;28.20;30.00;;;;;;10351422;28;20197;-96
2023/07/10 09:59:37;;;;;;;5.53;2.20;;;28.10;27.90;;;;;;10346986;28;20221;-96
2023/07/10 10:04:42;;;;;;;2.70;2.10;;;28.00;27.90;;;;;;10367963;28;20302;-96
2023/07/10 10:09:45;;;;;;;7.18;2.47;;;28.10;27.20;;;;;;10349881;28;20298;-96
2023/07/10 10:14:58;;;;;;;6.93;3.65;;;28.10;27.90;;;;;;10278609;28;20633;-96
2023/07/10 10:20:15;;;;;;;4.90;2.78;;;28.00;26.50;;;;;;10291167;28;20236;-96
2023/07/10 10:25:23;;;;;;;2.35;2.05;;;27.90;25.60;;;;;;10307911;28;20214;-96
2023/07/10 10:30:40;;;;;;;2.97;1.65;;;27.70;26.00;;;;;;10315000;28;20233;-96
2023/07/10 10:35:51;;;;;;;4.32;3.30;;;27.50;25.50;;;;;;10322335;28;20208;-96
2023/07/10 10:41:14;;;;;;;2.10;1.90;;;27.60;25.50;;;;;;10321894;28;20264;-96
2023/07/10 10:46:47;;;;;;;6.88;2.67;;;27.60;25.50;;;;;;10303673;28;20216;-96
2023/07/10 10:52:02;;;;;;;4.22;2.13;;;27.60;25.80;;;;;;10320270;28;20201;-96
2023/07/10 10:57:40;;;;;;;3.40;2.30;;;27.70;26.00;;;;;;10337314;28;20217;-95
2023/07/10 11:02:55;;;;;;;3.20;2.95;;;27.70;25.20;;;;;;10297296;28;20274;-96
2023/07/10 11:08:02;;;;;;;3.38;2.72;;;27.70;24.80;;;;;;10298286;28;20253;-96
2023/07/10 11:13:14;;;;;;;3.33;2.30;;;27.90;22.10;;;;;;10328303;28;20213;-96
2023/07/10 11:18:17;;;;;;;3.17;2.25;;;27.80;21.90;;;;;;10337367;28;20588;-96
2023/07/10 11:23:36;;;;;;;3.63;2.47;;;27.70;21.40;;;;;;10336484;28;20201;-96
2023/07/10 11:28:58;;;;;;;2.75;2.35;;;27.60;21.40;;;;;;10324774;28;20224;-96
2023/07/10 11:34:30;;;;;;;2.88;2.15;;;27.50;22.40;;;;;;10335637;28;20240;-96
2023/07/10 11:39:36;;;;;;;4.57;2.55;;;27.40;25.30;;;;;;10311768;28;20237;-96
2023/07/10 11:44:41;;;;;;;7.60;2.55;;;27.50;25.70;;;;;;10336291;28;20272;-96
2023/07/10 11:49:50;;;;;;;3.75;2.75;;;27.80;24.10;;;;;;10342232;28;20241;-96
2023/07/10 11:54:56;;;;;;;8.82;2.90;;;28.00;22.40;;;;;;10341655;28;20197;-96
2023/07/10 12:00:14;;;;;;;12.93;2.80;;;28.00;21.80;;;;;;10324054;28;20217;-96
2023/07/10 12:05:36;;;;;;;6.20;1.90;;;28.10;21.70;;;;;;10354263;28;20251;-96
2023/07/10 12:10:46;;;;;;;4.97;2.50;;;28.20;20.80;;;;;;10323940;28;20244;-96
2023/07/10 12:15:51;;;;;;;22.77;4.22;;;28.40;21.60;;;;;;10336192;28;20213;-96
2023/07/10 12:20:57;;;;;;;4.47;2.58;;;28.50;20.10;;;;;;10306669;28;20576;-96
2023/07/10 12:26:01;;;;;;;7.20;2.90;;;28.70;19.50;;;;;;10321131;28;20264;-95
2023/07/10 12:31:11;;;;;;;4.70;2.85;;;;;;;;;;10338603;28;20228;-96
2023/07/10 12:36:33;;;;;;;3.95;3.45;;;28.40;18.10;;;;;;10295531;28;20210;-96
2023/07/10 12:41:44;;;;;;;3.20;2.72;;;28.90;17.80;;;;;;10295093;28;20237;-96
2023/07/10 12:46:55;;;;;;;3.28;2.97;;;28.90;16.60;;;;;;10298849;28;20240;-96
2023/07/10 12:52:00;;;;;;;6.68;3.05;;;28.80;18.30;;;;;;10290417;28;20210;-96
2023/07/10 12:57:08;;;;;;;4.35;2.90;;;28.90;18.00;;;;;;10281200;28;20232;-96
2023/07/10 13:02:47;;;;;;;3.28;2.88;;;29.10;18.10;;;;;;10332074;28;20261;-96
2023/07/10 13:07:53;;;;;;;3.53;2.83;;;29.10;17.10;;;;;;10306898;28;20236;-96
2023/07/10 13:13:01;;;;;;;5.35;2.63;;;29.20;18.30;;;;;;10333976;28;20256;-95
2023/07/10 13:18:15;;;;;;;3.05;2.75;;;29.10;17.20;;;;;;10333759;28;20608;-96
2023/07/10 13:23:18;;;;;;;5.35;2.75;;;29.00;16.50;;;;;;10316884;28;20205;-96
2023/07/10 13:28:26;;;;;;;2.78;2.58;;;29.00;17.70;;;;;;10335659;28;20284;-96
2023/07/10 13:33:49;;;;;;;3.22;2.92;;;28.90;18.40;;;;;;10337403;28;20671;-95
2023/07/10 13:38:52;;;;;;;3.00;2.60;;;29.00;14.10;;;;;;10315611;28;20773;-96
2023/07/10 13:43:55;;;;;;;6.13;3.35;;;29.10;16.90;;;;;;10330947;28;20221;-96
2023/07/10 13:49:04;;;;;;;3.83;3.53;;;29.10;16.10;;;;;;10330540;28;20260;-96
2023/07/10 13:54:07;;;;;;;5.22;2.78;;;29.30;15.80;;;;;;10331480;28;20263;-96
2023/07/10 13:59:15;;;;;;;5.85;3.03;;;29.40;15.00;;;;;;10297728;28;20205;-96
2023/07/10 14:04:18;;;;;;;2.53;2.33;;;29.50;14.90;;;;;;10299123;28;20667;-96
2023/07/10 14:09:21;;;;;;;3.92;3.17;;;29.40;14.90;;;;;;10327115;28;20296;-96
2023/07/10 14:14:24;;;;;;;3.28;2.55;;;29.40;14.50;;;;;;10275223;28;20237;-96
2023/07/10 14:19:26;;;;;;;9.18;4.05;;;29.40;16.00;;;;;;10323314;28;20267;-96
2023/07/10 14:24:29;;;;;;;6.32;3.78;;;29.40;13.20;;;;;;10319302;28;20275;-96
2023/07/10 14:29:31;;;;;;;3.25;2.75;;;29.40;15.60;;;;;;10327622;28;20582;-95
2023/07/10 14:34:35;;;;;;;2.60;2.40;;;29.80;14.80;;;;;;10321894;28;20272;-96
2023/07/10 14:40:15;;;;;;;2.80;2.60;;;29.80;15.30;;;;;;10309399;28;20288;-96
2023/07/10 14:45:32;;;;;;;4.20;3.58;;;29.80;14.30;;;;;;10309753;28;20245;-96
2023/07/10 14:50:35;;;;;;;4.53;3.25;;;29.90;14.40;;;;;;10296691;28;20252;-94
2023/07/10 14:55:38;;;;;;;3.05;2.45;;;30.00;15.00;;;;;;10300631;28;20265;-94
2023/07/10 15:00:40;;;;;;;16.17;5.05;;;30.00;14.00;;;;;;10331347;28;20213;-95
2023/07/10 15:05:52;;;;;;;4.55;4.00;;;29.90;12.70;;;;;;10328389;28;20209;-96
2023/07/10 15:10:56;;;;;;;4.63;3.47;;;29.60;12.60;;;;;;10308813;28;20264;-96
2023/07/10 15:16:01;;;;;;;4.68;3.72;;;29.60;13.80;;;;;;10321979;28;20240;-95
2023/07/10 15:21:04;;;;;;;4.57;4.10;;;29.60;13.50;;;;;;10334888;28;20579;-96
2023/07/10 15:26:07;;;;;;;8.70;3.13;;;29.50;14.70;;;;;;10332649;28;20719;-93
2023/07/10 15:31:14;;;;;;;3.58;2.97;;;29.20;16.50;;;;;;10330138;28;20311;-95
2023/07/10 15:36:21;;;;;;;11.27;5.28;;;29.20;16.20;;;;;;10317266;28;20644;-95
2023/07/10 15:41:25;;;;;;;3.25;2.88;;;29.20;16.30;;;;;;10331958;28;20272;-95
2023/07/10 15:46:27;;;;;;;5.22;4.72;;;29.20;17.00;;;;;;10330040;28;20319;-93
2023/07/10 15:51:30;;;;;;;8.00;5.88;;;29.00;15.30;;;;;;10330579;28;20303;-96
2023/07/10 15:56:33;;;;;;;9.98;4.65;;;28.80;16.30;;;;;;10331738;28;20201;-95
2023/07/10 16:01:36;;;;;;;7.85;5.55;;;28.70;16.00;;;;;;10313972;28;20311;-94
2023/07/10 16:06:38;;;;;;;7.03;5.03;;;28.70;15.90;;;;;;10320545;28;20256;-96
2023/07/10 16:11:42;;;;;;;6.70;6.03;;;28.60;16.00;;;;;;10327666;28;20269;-96
2023/07/10 16:16:45;;;;;;;5.70;4.10;;;28.80;15.90;;;;;;10334643;28;20598;-96
2023/07/10 16:21:51;;;;;;;11.07;5.80;;;28.60;16.80;;;;;;10344901;28;20209;-96
2023/07/10 16:26:53;;;;;;;4.25;3.58;;;28.40;15.00;;;;;;10349717;28;20213;-96
2023/07/10 16:31:56;;;;;;;5.28;4.78;;;28.20;17.00;;;;;;10329286;28;20296;-96
2023/07/10 16:36:59;;;;;;;9.90;5.95;;;28.10;15.60;;;;;;10342267;28;20233;-96
2023/07/10 16:42:01;;;;;;;10.93;6.35;;;28.00;14.20;;;;;;10299319;28;20289;-96
2023/07/10 16:47:13;;;;;;;4.93;3.85;;;27.90;14.00;;;;;;10358146;28;20213;-96
2023/07/10 16:52:16;;;;;;;4.95;4.10;;;27.80;15.80;;;;;;10334430;28;20272;-96
2023/07/10 16:57:18;;;;;;;8.57;6.07;;;27.60;16.10;;;;;;10341811;28;20236;-96
2023/07/10 17:02:23;;;;;;;9.30;5.88;;;27.50;16.20;;;;;;10323952;28;20217;-96
2023/07/10 17:07:25;;;;;;;4.60;4.20;;;27.30;18.00;;;;;;10366019;28;20208;-96
2023/07/10 17:18:37;;;;;;;5.97;5.38;;;26.90;19.90;;;;;;10323382;28;20237;-94
2023/07/10 17:23:41;;;;;;;7.13;5.03;;;26.80;20.80;;;;;;10325541;28;20220;-96
2023/07/10 17:28:45;;;;;;;5.72;5.22;;;26.60;21.30;;;;;;10329717;28;20726;-94
2023/07/10 17:33:56;;;;;;;11.05;7.40;;;26.50;22.00;;;;;;10311516;28;20558;-95
2023/07/10 17:38:59;;;;;;;7.28;4.88;;;26.50;24.10;;;;;;10329694;28;20217;-95
2023/07/10 17:44:25;;;;;;;6.72;6.00;;;26.30;23.40;;;;;;10307878;28;20204;-95
2023/07/10 17:49:30;;;;;;;5.78;3.90;;;26.20;24.20;;;;;;10329442;28;20264;-94
2023/07/10 17:54:36;;;;;;;9.27;5.18;;;25.90;26.00;;;;;;9993629;28;10000812;-95
2023/07/10 17:59:39;;;;;;;8.07;5.80;;;25.20;36.10;;;;;;10349075;28;20228;-95
2023/07/10 18:04:42;;;;;;;5.57;5.03;;;24.40;55.90;;;;;;10304494;28;20595;-94
2023/07/10 18:09:45;;;;;;;9.40;6.30;;;24.00;79.40;;;;;;10321497;28;20651;-95
2023/07/10 18:14:47;;;;;;;8.02;6.55;;;23.60;82.70;;;;;;10333194;28;20275;-96
2023/07/10 18:19:50;;;;;;;10.73;6.75;;;23.40;89.00;;;;;;10287047;28;20279;-95
2023/07/10 18:24:53;;;;;;;10.63;6.68;;;23.10;99.90;;;;;;10271292;28;20582;-94
2023/07/10 18:29:55;;;;;;;8.90;6.90;;;22.80;96.20;;;;;;10288262;28;21020;-94
2023/07/10 18:35:01;;;;;;;6.20;5.70;;;22.70;96.60;;;;;;10301198;28;20208;-96
2023/07/10 18:40:04;;;;;;;9.35;6.03;;;22.60;97.30;;;;;;10325843;28;20654;-96
2023/07/10 18:45:16;;;;;;;7.32;6.13;;;22.60;96.10;;;;;;10329912;28;20212;-95
2023/07/10 18:50:19;;;;;;;9.23;6.90;;;22.40;97.50;;;;;;10315224;28;20228;-96
2023/07/10 18:55:26;;;;;;;8.30;7.18;;;22.20;99.90;;;;;;10346707;28;20251;-96
2023/07/10 19:00:29;;;;;;;7.50;5.78;;;21.90;99.90;;;;;;10365468;28;20216;-96
2023/07/10 19:05:31;;;;;;;6.40;5.80;;;21.80;99.90;;;;;;10343771;28;20686;-96
2023/07/10 19:10:34;;;;;;;6.93;6.22;;;21.80;96.10;;;;;;10317775;28;20287;-96
2023/07/10 19:15:37;;;;;;;5.47;4.97;;;21.90;99.40;;;;;;10342145;28;20220;-96
2023/07/10 19:20:40;;;;;;;6.70;4.97;;;22.00;92.90;;;;;;10340496;28;20262;-96
2023/07/10 19:25:43;;;;;;;6.13;5.53;;;22.20;92.00;;;;;;10340085;28;20229;-96
2023/07/10 19:30:51;;;;;;;6.07;4.53;;;22.30;92.40;;;;;;10322588;28;20308;-96
2023/07/10 19:35:54;;;;;;;6.10;5.47;;;22.50;91.00;;;;;;10337075;28;20617;-96
2023/07/10 19:47:11;;;;;;;8.98;6.55;;;22.50;89.00;;;;;;10316967;28;20220;-96
2023/07/10 19:52:16;;;;;;;7.75;6.00;;;22.30;94.40;;;;;;10335182;28;20645;-96
2023/07/10 19:57:35;;;;;;;8.27;7.00;;;22.00;96.40;;;;;;10324824;28;20235;-96
2023/07/10 20:02:38;;;;;;;7.10;6.35;;;21.80;99.90;;;;;;10331144;28;20212;-95
2023/07/10 20:07:41;;;;;;;5.45;4.95;;;21.60;99.10;;;;;;10319113;28;20229;-94
2023/07/10 20:12:44;;;;;;;6.40;5.80;;;21.40;96.00;;;;;;10297468;28;20261;-95
2023/07/10 20:17:46;;;;;;;8.35;7.55;;;21.40;96.30;;;;;;10330889;28;20209;-96
2023/07/10 20:22:50;;;;;;;6.50;5.72;;;21.20;98.90;;;;;;10335892;28;20209;-95
2023/07/10 20:27:52;;;;;;;8.73;6.20;;;21.10;99.90;;;;;;10298538;28;20205;-96
2023/07/10 20:32:55;;;;;;;8.90;6.05;;;21.00;99.80;;;;;;10316611;28;20262;-96
2023/07/10 20:37:59;;;;;;;6.13;4.72;;;21.00;97.20;;;;;;10301713;28;20264;-95
2023/07/10 20:43:02;;;;;;;9.48;6.90;;;21.10;95.00;;;;;;10266055;28;20237;-96
2023/07/10 20:48:09;;;;;;;12.35;8.00;;;21.10;98.00;;;;;;10290047;28;20221;-94
2023/07/10 20:53:12;;;;;;;7.90;7.10;;;21.10;99.90;;;;;;10290685;28;20316;-95
2023/07/10 20:58:20;;;;;;;7.53;6.80;;;21.10;98.90;;;;;;10271986;28;20289;-94
2023/07/10 21:03:27;;;;;;;9.25;8.13;;;21.30;98.50;;;;;;10286654;28;20265;-96
2023/07/10 21:08:34;;;;;;;8.32;6.82;;;21.40;97.90;;;;;;10289660;28;20294;-94
2023/07/10 21:13:37;;;;;;;13.77;12.38;;;21.60;95.90;;;;;;10311078;28;20222;-93
2023/07/10 21:18:39;;;;;;;8.43;7.65;;;21.70;99.90;;;;;;10286577;28;20241;-93
2023/07/10 21:23:42;;;;;;;6.80;6.05;;;21.50;99.50;;;;;;10265930;28;20233;-95
2023/07/10 21:28:48;;;;;;;11.55;9.52;;;21.50;96.90;;;;;;10284035;28;20245;-93
2023/07/10 21:33:53;;;;;;;9.23;8.32;;;21.50;97.60;;;;;;10284423;28;20320;-95
2023/07/10 21:38:55;;;;;;;9.52;7.63;;;21.50;98.00;;;;;;10272156;28;20249;-95
2023/07/10 21:44:05;;;;;;;7.85;7.07;;;21.50;98.00;;;;;;10327934;28;20295;-96
2023/07/10 21:49:13;;;;;;;8.68;7.75;;;21.50;96.90;;;;;;10336721;28;20217;-96
2023/07/10 21:54:15;;;;;;;13.90;11.25;;;21.40;99.90;;;;;;10340292;28;20209;-95
2023/07/10 21:59:22;;;;;;;6.82;6.00;;;21.40;99.90;;;;;;10294382;28;20647;-94
2023/07/10 22:04:24;;;;;;;10.05;9.15;;;21.60;96.20;;;;;;10312408;28;20236;-93
2023/07/10 22:09:27;;;;;;;11.43;9.27;;;21.70;98.00;;;;;;10311969;28;20942;-94
2023/07/10 22:14:30;;;;;;;7.35;6.65;;;21.50;99.10;;;;;;10291778;28;20237;-94
2023/07/10 22:19:32;;;;;;;9.02;6.13;;;21.20;98.10;;;;;;10274193;28;20245;-94
2023/07/10 22:24:35;;;;;;;6.38;5.35;;;21.20;96.90;;;;;;10309765;28;20240;-92
2023/07/10 22:29:38;;;;;;;7.28;6.68;;;21.40;95.40;;;;;;10332633;28;20283;-94
2023/07/10 22:34:46;;;;;;;7.30;6.60;;;21.20;97.10;;;;;;10316289;28;20311;-94
2023/07/10 22:39:49;;;;;;;6.85;6.25;;;20.90;98.60;;;;;;10326800;28;20269;-94
2023/07/10 22:44:52;;;;;;;8.43;7.55;;;20.70;99.90;;;;;;10305400;28;20680;-94
2023/07/10 22:49:54;;;;;;;9.65;7.80;;;20.30;99.90;;;;;;10323443;28;20264;-92
2023/07/10 22:54:57;;;;;;;6.30;5.70;;;20.00;99.90;;;;;;10320351;28;20202;-96
2023/07/10 23:00:00;;;;;;;5.65;5.00;;;19.70;99.90;;;;;;10331322;28;20590;-94
2023/07/10 23:05:02;;;;;;;6.65;5.97;;;19.60;99.90;;;;;;10318159;28;20217;-96
2023/07/10 23:10:05;;;;;;;11.45;5.70;;;19.50;99.90;;;;;;10309840;28;20676;-96
2023/07/10 23:15:08;;;;;;;7.05;6.05;;;19.30;99.90;;;;;;10294701;28;20205;-96
2023/07/10 23:20:20;;;;;;;7.82;5.30;;;19.00;99.90;;;;;;10341022;28;20213;-95
2023/07/10 23:25:24;;;;;;;5.88;5.20;;;19.00;99.90;;;;;;10346086;28;20217;-96
2023/07/10 23:30:27;;;;;;;6.82;5.47;;;18.90;99.90;;;;;;10359132;28;20221;-95
2023/07/10 23:35:30;;;;;;;5.35;4.85;;;19.00;99.90;;;;;;10354471;28;20205;-96
2023/07/10 23:40:34;;;;;;;5.50;5.00;;;19.00;99.90;;;;;;10368585;28;20237;-96
2023/07/10 23:45:37;;;;;;;5.03;4.63;;;19.10;99.90;;;;;;10374621;28;20213;-96
2023/07/10 23:50:39;;;;;;;5.47;4.97;;;19.10;99.90;;;;;;10359416;28;20233;-96
2023/07/10 23:55:42;;;;;;;5.93;5.32;;;19.10;99.90;;;;;;10329609;28;20205;-96
